Time;durP1;ratioP1;P1;durP2;ratioP2;P2;SDS_P1;SDS_P2;PMS_P1;PMS_P2;Temp;Humidity;BMP_temperature;BMP_pressure;BME280_temperature;BME280_humidity;BME280_pressure;Samples;Min_cycle;Max_cycle;Signal;HPM_P1;HPM_P2
2020/12/06 00:02:04;;;;;;;20.02;9.45;;;0.60;64.00;;;;;;5000481;28;20054;-91
2020/12/06 00:04:29;;;;;;;19.67;9.30;;;0.60;63.80;;;;;;5115886;23;20042;-91
2020/12/06 00:06:57;;;;;;;19.30;9.77;;;0.60;63.90;;;;;;5171293;23;20066;-91
2020/12/06 00:09:23;;;;;;;16.50;9.27;;;0.60;64.00;;;;;;5000086;28;20106;-91
2020/12/06 00:11:49;;;;;;;20.02;10.02;;;0.60;64.00;;;;;;4966986;28;20081;-85
2020/12/06 00:14:15;;;;;;;20.77;10.52;;;0.60;64.00;;;;;;4975277;28;20066;-83
2020/12/06 00:16:41;;;;;;;19.38;9.48;;;0.60;63.90;;;;;;4975980;28;20498;-83
2020/12/06 00:19:07;;;;;;;20.98;10.10;;;0.60;63.90;;;;;;4975365;28;20030;-84
2020/12/06 00:21:33;;;;;;;21.63;10.02;;;0.50;63.80;;;;;;4978674;28;20053;-84
2020/12/06 00:23:59;;;;;;;19.85;10.13;;;0.50;63.80;;;;;;4984017;28;20070;-84
2020/12/06 00:26:26;;;;;;;22.33;11.02;;;0.50;63.90;;;;;;4976125;28;20085;-86
2020/12/06 00:28:53;;;;;;;19.60;9.48;;;0.50;64.00;;;;;;4976840;28;20119;-86
2020/12/06 00:31:20;;;;;;;20.70;10.15;;;0.50;63.70;;;;;;4976443;28;20034;-86
2020/12/06 00:33:46;;;;;;;20.17;10.38;;;0.50;63.80;;;;;;4959319;28;20121;-86
2020/12/06 00:36:14;;;;;;;21.48;10.23;;;0.50;63.90;;;;;;4960150;28;20375;-86
2020/12/06 00:38:40;;;;;;;16.38;9.55;;;0.50;63.90;;;;;;4975528;28;20125;-85
2020/12/06 00:41:13;;;;;;;17.80;9.63;;;0.50;63.80;;;;;;4958965;28;20031;-84
2020/12/06 00:43:39;;;;;;;18.27;9.48;;;0.50;64.00;;;;;;4977435;28;20035;-84
2020/12/06 00:46:05;;;;;;;18.77;9.82;;;0.50;64.00;;;;;;4961742;28;20038;-84
2020/12/06 00:48:31;;;;;;;19.20;9.27;;;0.50;63.80;;;;;;4974750;28;20031;-83
2020/12/06 00:50:58;;;;;;;19.75;10.05;;;0.50;63.80;;;;;;4979517;28;20050;-83
2020/12/06 00:53:24;;;;;;;19.10;10.15;;;0.50;63.80;;;;;;4976965;28;20045;-83
2020/12/06 00:55:51;;;;;;;19.85;9.63;;;0.50;63.80;;;;;;4974761;28;20038;-84
2020/12/06 00:58:17;;;;;;;22.40;10.32;;;0.50;63.80;;;;;;4974892;28;20064;-83
2020/12/06 01:00:44;;;;;;;22.50;10.65;;;0.40;63.80;;;;;;4975229;28;20050;-84
2020/12/06 01:03:10;;;;;;;19.50;10.38;;;0.50;63.80;;;;;;4957233;28;20066;-85
2020/12/06 01:05:36;;;;;;;16.05;9.02;;;0.50;63.70;;;;;;4974983;28;20070;-85
2020/12/06 01:08:02;;;;;;;18.48;9.80;;;0.50;63.70;;;;;;4975087;28;20050;-85
2020/12/06 01:10:28;;;;;;;22.75;10.20;;;0.40;63.70;;;;;;4958135;28;20046;-85
2020/12/06 01:12:54;;;;;;;21.55;11.07;;;0.40;63.60;;;;;;4941796;28;20157;-85
2020/12/06 01:15:20;;;;;;;20.70;9.77;;;0.40;63.70;;;;;;4957308;28;20046;-85
2020/12/06 01:17:46;;;;;;;21.20;9.82;;;0.40;63.80;;;;;;4975759;28;20058;-85
2020/12/06 01:20:12;;;;;;;16.02;9.80;;;0.40;63.70;;;;;;4974540;28;20066;-84
2020/12/06 01:22:38;;;;;;;19.20;10.40;;;0.40;63.80;;;;;;4958047;28;20039;-84
2020/12/06 01:25:05;;;;;;;20.67;10.07;;;0.40;63.70;;;;;;4974686;28;20060;-82
2020/12/06 01:27:32;;;;;;;17.73;9.77;;;0.40;63.60;;;;;;4956908;28;20027;-81
2020/12/06 01:29:58;;;;;;;18.30;10.57;;;0.40;63.50;;;;;;4974151;28;20038;-82
2020/12/06 01:32:24;;;;;;;18.63;9.48;;;0.40;63.50;;;;;;4974092;28;20062;-82
2020/12/06 01:34:50;;;;;;;21.73;11.07;;;0.40;63.50;;;;;;4973294;28;20027;-90
2020/12/06 01:37:16;;;;;;;19.70;10.35;;;0.40;63.60;;;;;;4963569;28;20030;-88
2020/12/06 01:39:43;;;;;;;18.20;10.40;;;0.30;63.50;;;;;;5090412;23;20022;-84
2020/12/06 01:42:08;;;;;;;19.63;10.13;;;0.30;63.60;;;;;;4975614;28;20045;-88
2020/12/06 01:44:35;;;;;;;18.90;10.38;;;0.30;63.40;;;;;;4995006;28;20053;-90
2020/12/06 01:47:02;;;;;;;18.17;9.63;;;0.30;63.50;;;;;;4981775;28;20510;-85
2020/12/06 01:49:36;;;;;;;16.35;9.52;;;0.30;63.40;;;;;;4956513;28;20030;-85
2020/12/06 01:52:04;;;;;;;19.67;10.45;;;0.30;63.50;;;;;;4958406;28;20042;-87
2020/12/06 01:54:30;;;;;;;21.10;10.50;;;0.30;63.50;;;;;;4975026;28;20043;-86
2020/12/06 01:56:56;;;;;;;19.45;10.20;;;0.30;63.40;;;;;;4976117;28;20062;-86
2020/12/06 01:59:22;;;;;;;18.55;10.32;;;0.30;63.40;;;;;;4958444;28;20062;-86
2020/12/06 02:02:02;;;;;;;20.50;10.60;;;0.30;63.40;;;;;;4975296;28;20111;-86
2020/12/06 02:04:29;;;;;;;20.88;10.45;;;0.30;63.40;;;;;;4976543;28;20522;-87
2020/12/06 02:06:56;;;;;;;20.20;9.48;;;0.30;63.40;;;;;;4979712;28;20043;-87
2020/12/06 02:09:23;;;;;;;20.02;10.32;;;0.30;63.90;;;;;;4960820;28;20042;-86
2020/12/06 02:11:49;;;;;;;21.52;11.18;;;0.30;63.30;;;;;;4980534;28;20169;-86
2020/12/06 02:14:16;;;;;;;20.92;10.43;;;0.20;63.20;;;;;;4962576;28;20046;-87
2020/12/06 02:16:42;;;;;;;20.67;10.18;;;0.30;63.30;;;;;;4978779;28;20046;-86
2020/12/06 02:19:09;;;;;;;18.45;10.40;;;0.20;63.20;;;;;;4958806;28;20038;-86
2020/12/06 02:21:39;;;;;;;17.92;10.90;;;0.20;63.20;;;;;;4975194;28;20042;-87
2020/12/06 02:24:06;;;;;;;17.58;9.30;;;0.20;63.20;;;;;;4975012;28;20030;-86
2020/12/06 02:26:40;;;;;;;18.52;10.43;;;0.20;63.10;;;;;;4983797;28;20035;-89
2020/12/06 02:29:06;;;;;;;20.30;10.00;;;0.20;63.00;;;;;;4993390;28;20042;-88
2020/12/06 02:31:32;;;;;;;18.52;9.65;;;0.20;62.90;;;;;;4995217;28;20039;-88
2020/12/06 02:33:58;;;;;;;21.58;10.05;;;0.20;63.00;;;;;;4996273;28;20041;-90
2020/12/06 02:36:24;;;;;;;20.50;9.32;;;0.20;62.90;;;;;;4995279;28;20043;-86
2020/12/06 02:38:51;;;;;;;19.40;9.80;;;0.20;62.90;;;;;;4977739;28;20034;-87
2020/12/06 02:41:17;;;;;;;18.15;10.73;;;0.20;63.00;;;;;;4957753;28;20094;-87
2020/12/06 02:43:43;;;;;;;16.20;10.05;;;0.20;62.90;;;;;;4974833;28;20047;-86
2020/12/06 02:46:09;;;;;;;17.13;9.95;;;0.20;62.90;;;;;;4974535;28;20061;-86
2020/12/06 02:48:35;;;;;;;18.35;9.63;;;0.20;63.00;;;;;;4979166;28;20041;-85
2020/12/06 02:51:03;;;;;;;20.50;10.90;;;0.20;62.90;;;;;;4983337;28;20042;-84
2020/12/06 02:53:28;;;;;;;21.65;10.88;;;0.10;62.80;;;;;;4986075;28;20093;-87
2020/12/06 02:55:54;;;;;;;20.58;10.10;;;0.20;62.90;;;;;;4980435;28;20042;-87
2020/12/06 02:58:20;;;;;;;17.02;10.32;;;0.20;62.80;;;;;;4981728;28;20383;-87
2020/12/06 03:00:46;;;;;;;21.35;10.10;;;0.10;62.70;;;;;;4982219;28;20035;-87
2020/12/06 03:03:12;;;;;;;18.80;9.85;;;0.10;62.80;;;;;;4982914;28;20042;-87
2020/12/06 03:05:38;;;;;;;19.65;10.38;;;0.10;62.90;;;;;;4968775;28;20030;-85
2020/12/06 03:08:04;;;;;;;17.85;10.02;;;0.10;62.80;;;;;;4979078;28;20076;-84
2020/12/06 03:10:30;;;;;;;18.98;9.82;;;0.10;62.80;;;;;;4959204;28;20168;-82
2020/12/06 03:12:56;;;;;;;18.60;9.98;;;0.10;62.70;;;;;;4978894;28;20054;-83
2020/12/06 03:15:22;;;;;;;18.15;9.55;;;0.10;62.80;;;;;;4979051;28;20042;-82
2020/12/06 03:17:47;;;;;;;20.75;10.02;;;0.10;62.80;;;;;;4976713;28;20027;-83
2020/12/06 03:20:13;;;;;;;19.33;10.15;;;0.00;62.80;;;;;;4976270;28;20438;-82
2020/12/06 03:22:40;;;;;;;21.80;10.40;;;0.00;62.70;;;;;;4976212;28;20043;-82
2020/12/06 03:25:06;;;;;;;20.17;10.40;;;0.10;63.30;;;;;;4958951;28;20137;-82
2020/12/06 03:27:33;;;;;;;21.48;9.98;;;0.10;62.70;;;;;;4959423;28;20041;-82
2020/12/06 03:30:17;;;;;;;24.05;10.85;;;0.00;62.60;;;;;;5021677;23;20091;31
2020/12/06 03:32:44;;;;;;;17.27;9.35;;;0.00;62.70;;;;;;4980016;28;20031;-89
2020/12/06 03:37:50;;;;;;;24.73;10.55;;;0.00;62.80;;;;;;4999466;28;20046;-93
2020/12/06 03:40:23;;;;;;;23.27;11.73;;;0.00;62.90;;;;;;4995693;28;20422;-86
2020/12/06 03:42:50;;;;;;;18.92;11.07;;;0.00;63.40;;;;;;4976223;28;20129;-84
2020/12/06 03:45:17;;;;;;;18.45;10.52;;;0.00;62.70;;;;;;4958985;28;20045;-83
2020/12/06 03:47:43;;;;;;;22.77;10.90;;;0.00;62.70;;;;;;4958851;28;20035;-83
2020/12/06 03:50:10;;;;;;;19.63;10.60;;;0.00;62.70;;;;;;4958883;28;20160;-84
2020/12/06 03:52:35;;;;;;;21.67;10.57;;;0.00;62.70;;;;;;4976326;28;20039;-82
2020/12/06 03:55:01;;;;;;;18.48;9.98;;;0.00;62.70;;;;;;4959659;28;20035;-81
2020/12/06 03:57:29;;;;;;;19.15;9.90;;;0.00;62.70;;;;;;4976309;28;20403;-82
2020/12/06 03:59:55;;;;;;;20.80;11.75;;;-0.10;62.70;;;;;;4976639;28;20038;-86
2020/12/06 04:02:21;;;;;;;21.45;11.55;;;-0.10;62.70;;;;;;4965912;28;20037;-89
2020/12/06 04:04:47;;;;;;;19.20;11.05;;;-0.10;62.70;;;;;;4988609;28;20035;-89
2020/12/06 04:07:13;;;;;;;22.20;11.60;;;-0.10;62.90;;;;;;4988237;28;20031;-89
2020/12/06 04:09:39;;;;;;;21.73;11.48;;;-0.10;62.80;;;;;;4991203;28;20035;-89
2020/12/06 04:12:05;;;;;;;19.67;10.52;;;-0.10;62.70;;;;;;4997106;28;20051;-90
2020/12/06 04:14:31;;;;;;;24.15;11.63;;;-0.10;62.60;;;;;;4995820;28;20043;-89
2020/12/06 04:16:56;;;;;;;22.48;10.95;;;-0.10;62.70;;;;;;4991780;28;20043;-87
2020/12/06 04:19:22;;;;;;;22.27;10.07;;;-0.10;62.90;;;;;;4978102;28;20038;-84
2020/12/06 04:21:49;;;;;;;20.67;10.30;;;-0.10;62.70;;;;;;4975697;28;20060;-85
2020/12/06 04:24:15;;;;;;;22.33;11.23;;;-0.10;62.70;;;;;;4977217;28;20534;-87
2020/12/06 04:26:41;;;;;;;18.75;10.60;;;-0.10;62.70;;;;;;4975830;28;20134;-86
2020/12/06 04:29:07;;;;;;;20.23;10.48;;;-0.20;62.60;;;;;;4976472;28;20046;-86
2020/12/06 04:31:33;;;;;;;20.05;10.50;;;-0.20;62.60;;;;;;4958131;28;20406;-87
2020/12/06 04:33:59;;;;;;;19.95;11.60;;;-0.20;62.70;;;;;;4978536;28;20035;-87
2020/12/06 04:36:25;;;;;;;19.08;10.55;;;-0.20;62.60;;;;;;4985621;28;20097;-86
2020/12/06 04:38:51;;;;;;;21.42;11.13;;;-0.20;62.50;;;;;;4987587;28;20042;-88
2020/12/06 04:41:17;;;;;;;20.77;10.85;;;-0.10;62.50;;;;;;4988196;28;20078;-86
2020/12/06 04:43:43;;;;;;;20.38;10.43;;;-0.10;62.50;;;;;;4982082;28;20045;-87
2020/12/06 04:46:10;;;;;;;20.73;10.68;;;-0.20;62.40;;;;;;4964292;28;20050;-86
2020/12/06 04:48:39;;;;;;;19.58;9.60;;;-0.20;62.50;;;;;;4959049;28;20478;-85
2020/12/06 04:51:06;;;;;;;18.50;10.32;;;-0.20;62.50;;;;;;4976481;28;20061;-84
2020/12/06 04:53:43;;;;;;;20.25;10.15;;;-0.20;62.40;;;;;;4960302;28;20043;-86
2020/12/06 04:56:11;;;;;;;20.15;10.15;;;-0.20;62.50;;;;;;4978235;28;20089;-86
2020/12/06 04:58:42;;;;;;;19.27;9.55;;;-0.20;62.50;;;;;;4961259;28;20042;-87
2020/12/06 05:01:08;;;;;;;19.80;9.68;;;-0.20;62.40;;;;;;4979921;28;20039;-86
2020/12/06 05:03:36;;;;;;;17.38;10.05;;;-0.20;62.40;;;;;;4974876;28;20406;-85
2020/12/06 05:06:05;;;;;;;16.42;9.85;;;-0.20;62.40;;;;;;4974000;28;20047;-83
2020/12/06 05:08:35;;;;;;;18.60;10.05;;;-0.20;62.30;;;;;;4957224;28;20085;-82
2020/12/06 05:11:01;;;;;;;19.83;10.25;;;-0.20;62.30;;;;;;4974498;28;20038;-83
2020/12/06 05:13:26;;;;;;;17.70;9.15;;;-0.20;62.40;;;;;;4974784;28;20035;-82
2020/12/06 05:15:55;;;;;;;18.90;10.63;;;-0.20;62.30;;;;;;4961859;28;20054;-82
2020/12/06 05:18:23;;;;;;;15.68;9.73;;;-0.20;62.40;;;;;;4974827;28;20045;-82
2020/12/06 05:20:50;;;;;;;16.58;9.40;;;-0.20;62.40;;;;;;4974137;28;20084;-83
2020/12/06 05:23:16;;;;;;;16.35;9.82;;;-0.20;62.40;;;;;;4973910;28;20580;-83
2020/12/06 05:25:42;;;;;;;16.17;9.45;;;-0.20;62.30;;;;;;4957048;28;20066;-82
2020/12/06 05:28:09;;;;;;;18.75;9.63;;;-0.20;62.30;;;;;;4974237;28;20390;-83
2020/12/06 05:30:40;;;;;;;18.70;9.45;;;-0.20;62.30;;;;;;4973992;28;20558;-83
2020/12/06 05:33:06;;;;;;;19.65;9.07;;;-0.20;62.30;;;;;;4974683;28;20051;-87
2020/12/06 05:35:31;;;;;;;17.63;9.35;;;-0.20;62.40;;;;;;4975149;28;20418;-85
2020/12/06 05:37:57;;;;;;;16.65;9.43;;;-0.30;62.30;;;;;;4958646;28;20086;-85
2020/12/06 05:40:26;;;;;;;19.70;9.43;;;-0.30;62.20;;;;;;4983398;28;20402;-89
2020/12/06 05:42:52;;;;;;;17.75;8.77;;;-0.20;62.30;;;;;;4958198;28;20146;-88
2020/12/06 05:45:19;;;;;;;20.40;10.13;;;-0.30;62.30;;;;;;4977952;28;20042;-92
2020/12/06 05:47:47;;;;;;;20.30;10.57;;;-0.30;62.30;;;;;;4973872;28;20019;-94
2020/12/06 05:50:13;;;;;;;15.40;9.13;;;-0.20;62.40;;;;;;4977017;28;20034;-91
2020/12/06 05:52:38;;;;;;;15.93;9.05;;;-0.30;62.30;;;;;;4975513;28;20130;-86
2020/12/06 05:55:04;;;;;;;19.40;9.70;;;-0.20;62.30;;;;;;4963174;28;20074;-87
2020/12/06 05:57:31;;;;;;;18.35;9.70;;;-0.20;62.20;;;;;;4977022;28;20035;-90
2020/12/06 06:00:00;;;;;;;18.48;9.48;;;-0.20;62.10;;;;;;4968203;28;20034;-88
2020/12/06 06:02:27;;;;;;;19.88;9.70;;;-0.20;62.10;;;;;;4959719;28;20490;-84
2020/12/06 06:05:01;;;;;;;16.50;9.13;;;-0.20;62.20;;;;;;4975924;28;20387;-83
2020/12/06 06:07:30;;;;;;;18.30;9.35;;;-0.20;62.10;;;;;;4973714;28;20066;-85
2020/12/06 06:10:02;;;;;;;18.02;9.43;;;-0.20;62.00;;;;;;4974103;28;20137;-82
2020/12/06 06:12:29;;;;;;;20.95;9.25;;;-0.20;62.00;;;;;;4975106;28;20042;-85
2020/12/06 06:14:57;;;;;;;17.08;9.05;;;-0.10;62.10;;;;;;4959896;28;20116;-87
2020/12/06 06:17:24;;;;;;;15.75;8.50;;;-0.10;62.00;;;;;;4957518;28;20442;-86
2020/12/06 06:19:51;;;;;;;14.73;9.00;;;-0.10;61.90;;;;;;4974243;28;20035;-87
2020/12/06 06:22:23;;;;;;;18.45;9.93;;;-0.10;61.90;;;;;;4979429;28;20035;-86
2020/12/06 06:24:52;;;;;;;17.60;9.55;;;-0.10;61.90;;;;;;4977527;28;20068;-83
2020/12/06 06:27:18;;;;;;;18.55;10.05;;;-0.10;61.90;;;;;;4978435;28;20035;-84
2020/12/06 06:29:44;;;;;;;18.05;10.18;;;-0.10;61.80;;;;;;4961684;28;20049;-86
2020/12/06 06:32:11;;;;;;;18.77;9.55;;;-0.10;61.70;;;;;;4978332;28;20035;-84
2020/12/06 06:34:38;;;;;;;17.90;9.48;;;0.00;61.70;;;;;;4964025;28;20043;-87
2020/12/06 06:37:15;;;;;;;16.67;9.75;;;0.00;61.70;;;;;;4981632;28;20065;-86
2020/12/06 06:39:43;;;;;;;13.80;8.13;;;-0.10;61.60;;;;;;4964172;28;20035;-84
2020/12/06 06:42:12;;;;;;;17.15;9.15;;;0.00;61.60;;;;;;4968621;28;20034;-89
2020/12/06 06:44:40;;;;;;;18.48;9.88;;;0.00;61.50;;;;;;4951529;28;20517;-85
2020/12/06 06:47:10;;;;;;;19.38;10.55;;;0.00;61.50;;;;;;4984893;28;20035;-87
2020/12/06 06:49:59;;;;;;;16.40;9.45;;;0.00;61.60;;;;;;4988452;28;20038;-89
2020/12/06 06:52:28;;;;;;;18.13;9.95;;;0.00;61.40;;;;;;4969107;28;20050;-86
2020/12/06 06:54:57;;;;;;;19.42;10.75;;;0.00;61.30;;;;;;4975007;28;20048;-88
2020/12/06 06:57:24;;;;;;;18.70;10.02;;;0.00;61.40;;;;;;4964181;28;20035;-85
2020/12/06 06:59:59;;;;;;;17.60;9.98;;;0.10;61.30;;;;;;4985840;28;20069;-85
2020/12/06 07:02:30;;;;;;;16.67;10.07;;;-0.10;61.10;;;;;;4983777;28;20074;-85
2020/12/06 07:04:57;;;;;;;19.00;9.88;;;-0.20;62.90;;;;;;4996861;28;20031;-89
2020/12/06 07:07:49;;;;;;;18.02;9.68;;;-0.20;63.40;;;;;;4980399;28;20049;-82
2020/12/06 07:10:20;;;;;;;17.40;9.73;;;-0.20;63.90;;;;;;4988893;28;20061;-89
2020/12/06 07:12:45;;;;;;;18.23;9.90;;;-0.20;64.10;;;;;;4988948;28;20042;-82
2020/12/06 07:15:13;;;;;;;17.42;9.68;;;-0.20;64.10;;;;;;4984671;28;20018;-90
2020/12/06 07:17:40;;;;;;;19.23;10.07;;;-0.20;64.20;;;;;;4986524;28;20470;-82
2020/12/06 07:20:08;;;;;;;20.58;9.70;;;-0.50;65.90;;;;;;4981996;28;20031;-86
2020/12/06 07:22:34;;;;;;;19.52;9.80;;;-0.60;68.40;;;;;;4968351;28;20022;-87
2020/12/06 07:25:01;;;;;;;18.42;9.77;;;-0.70;70.60;;;;;;4967927;28;20031;-87
2020/12/06 07:27:27;;;;;;;17.00;10.00;;;-0.70;71.20;;;;;;4977736;28;20098;-88
2020/12/06 07:29:54;;;;;;;17.80;10.35;;;-0.70;71.50;;;;;;4970628;28;20085;-90
2020/12/06 07:32:20;;;;;;;17.98;10.20;;;-0.70;72.20;;;;;;4985829;28;20035;-84
2020/12/06 07:34:48;;;;;;;20.00;10.20;;;-0.70;73.00;;;;;;4977328;28;20043;-84
2020/12/06 07:37:15;;;;;;;22.38;10.95;;;-0.70;73.40;;;;;;4976504;28;20165;-87
2020/12/06 07:39:50;;;;;;;18.23;10.13;;;-0.70;73.40;;;;;;4986842;28;20042;-89
2020/12/06 07:42:24;;;;;;;15.82;9.23;;;-0.70;73.20;;;;;;4983312;28;20035;-84
2020/12/06 07:44:56;;;;;;;18.08;10.10;;;-0.40;72.70;;;;;;4987945;28;20105;-85
2020/12/06 07:47:24;;;;;;;17.48;9.23;;;-0.30;73.40;;;;;;4986625;28;20130;-87
2020/12/06 07:49:52;;;;;;;22.02;9.95;;;-0.20;73.10;;;;;;4977601;28;20479;-87
2020/12/06 07:52:22;;;;;;;22.45;10.00;;;0.10;72.30;;;;;;4982641;28;20043;-91
2020/12/06 07:54:58;;;;;;;18.70;10.40;;;0.40;71.60;;;;;;4983881;28;20039;-85
2020/12/06 07:57:39;;;;;;;19.15;10.32;;;0.50;70.80;;;;;;4976190;28;20042;-84
2020/12/06 08:00:20;;;;;;;20.40;10.52;;;0.70;69.80;;;;;;4976063;28;20054;-82
2020/12/06 08:02:54;;;;;;;25.27;11.00;;;0.80;68.90;;;;;;4958546;28;20058;-80
2020/12/06 08:05:22;;;;;;;17.55;9.80;;;0.90;68.30;;;;;;4958137;28;20034;-83
2020/12/06 08:08:04;;;;;;;16.60;9.98;;;1.00;67.70;;;;;;4975858;28;20394;-83
2020/12/06 08:10:31;;;;;;;19.10;10.30;;;1.10;67.20;;;;;;4958151;28;20046;-81
2020/12/06 08:12:57;;;;;;;19.63;10.70;;;1.20;66.80;;;;;;4958269;28;20079;-79
2020/12/06 08:15:25;;;;;;;21.02;10.95;;;1.30;66.10;;;;;;4975683;28;20035;-80
2020/12/06 08:17:52;;;;;;;19.02;10.13;;;1.30;65.80;;;;;;4975234;28;20039;-80
2020/12/06 08:20:20;;;;;;;18.85;9.98;;;1.40;65.50;;;;;;4975032;28;20070;-80
2020/12/06 08:22:57;;;;;;;22.45;10.55;;;1.50;65.10;;;;;;4957685;28;20031;-81
2020/12/06 08:25:31;;;;;;;21.33;9.57;;;1.60;64.70;;;;;;4958110;28;20062;-82
2020/12/06 08:27:59;;;;;;;17.42;9.27;;;1.60;64.50;;;;;;4958105;28;20041;-79
2020/12/06 08:30:27;;;;;;;17.58;10.30;;;1.70;64.20;;;;;;4958100;28;20046;-81
2020/12/06 08:33:00;;;;;;;18.20;9.70;;;1.70;63.80;;;;;;4957631;28;20062;-79
2020/12/06 08:35:47;;;;;;;20.35;10.20;;;1.70;63.60;;;;;;4974240;28;20051;-82
2020/12/06 08:38:22;;;;;;;15.60;9.05;;;1.80;63.20;;;;;;4975005;28;20121;-81
2020/12/06 08:41:07;;;;;;;18.52;9.93;;;1.80;63.00;;;;;;4974656;28;20042;-81
2020/12/06 08:44:02;;;;;;;22.27;9.48;;;1.90;63.00;;;;;;4974760;28;20502;-82
2020/12/06 08:46:29;;;;;;;16.55;8.73;;;1.90;62.50;;;;;;4972811;28;20051;-83
2020/12/06 08:48:57;;;;;;;19.98;9.32;;;1.90;62.40;;;;;;4974452;28;20101;-83
2020/12/06 08:51:24;;;;;;;16.10;8.93;;;1.90;62.20;;;;;;4957040;28;20035;-84
2020/12/06 08:53:50;;;;;;;18.98;10.18;;;2.00;62.20;;;;;;4974720;28;20067;-83
2020/12/06 08:58:51;;;;;;;;;;;2.00;62.20;;;;;;4998577;28;20058;-87
2020/12/06 09:01:17;;;;;;;19.38;11.07;;;2.10;61.90;;;;;;4989498;28;19914;-90
2020/12/06 09:03:43;;;;;;;17.77;9.50;;;2.00;62.00;;;;;;5006787;28;20379;-88
2020/12/06 09:06:17;;;;;;;17.17;9.30;;;2.10;62.10;;;;;;4998197;28;20040;-88
2020/12/06 09:08:43;;;;;;;16.20;10.05;;;2.10;61.90;;;;;;4983183;28;20042;-87
2020/12/06 09:11:14;;;;;;;22.33;10.18;;;2.10;61.90;;;;;;4998595;28;20061;-89
2020/12/06 09:13:40;;;;;;;16.33;8.75;;;2.10;61.90;;;;;;4987458;28;20061;-90
2020/12/06 09:16:06;;;;;;;18.50;10.18;;;2.10;61.90;;;;;;4991501;28;20088;-91
2020/12/06 09:18:32;;;;;;;19.92;8.77;;;2.10;61.80;;;;;;5009988;28;20014;-92
2020/12/06 09:20:58;;;;;;;23.70;10.18;;;2.10;61.80;;;;;;5015118;28;20089;-92
2020/12/06 09:23:25;;;;;;;16.80;9.00;;;2.10;61.50;;;;;;4996782;28;20086;-80
2020/12/06 09:25:51;;;;;;;17.33;9.40;;;2.10;61.70;;;;;;4993732;28;20375;-82
2020/12/06 09:28:17;;;;;;;15.48;9.32;;;2.10;61.70;;;;;;4995072;28;20137;-83
2020/12/06 09:30:44;;;;;;;16.42;9.32;;;2.10;61.40;;;;;;4997487;28;20058;-90
2020/12/06 09:33:10;;;;;;;17.60;9.07;;;2.10;61.50;;;;;;4976745;28;20056;-82
2020/12/06 09:35:35;;;;;;;15.00;8.88;;;2.10;61.50;;;;;;4993912;28;20042;-86
2020/12/06 09:38:01;;;;;;;18.63;9.63;;;2.10;61.60;;;;;;4976069;28;20056;-81
2020/12/06 09:40:27;;;;;;;20.20;10.38;;;2.10;61.50;;;;;;4993573;28;20045;-84
2020/12/06 09:42:53;;;;;;;21.63;10.85;;;2.10;61.60;;;;;;4993529;28;20100;-82
2020/12/06 09:45:19;;;;;;;19.83;10.65;;;2.00;61.50;;;;;;4975813;28;20034;-80
2020/12/06 09:47:45;;;;;;;20.65;9.60;;;2.00;61.60;;;;;;4992106;28;20043;-80
2020/12/06 09:50:10;;;;;;;20.05;9.98;;;2.00;61.60;;;;;;4992791;28;20069;-82
2020/12/06 09:52:36;;;;;;;19.10;10.00;;;2.00;61.60;;;;;;4976043;28;20065;-84
2020/12/06 09:55:02;;;;;;;16.50;9.52;;;2.00;61.70;;;;;;4976107;28;20069;-85
2020/12/06 09:57:29;;;;;;;23.77;11.13;;;2.00;61.70;;;;;;4994548;28;20087;-84
2020/12/06 09:59:54;;;;;;;20.40;11.35;;;2.00;61.80;;;;;;4993842;28;20636;-85
2020/12/06 10:02:20;;;;;;;20.08;9.98;;;2.00;61.80;;;;;;4994223;28;20125;-86
2020/12/06 10:04:49;;;;;;;24.25;11.32;;;2.00;61.80;;;;;;4977719;28;20065;-85
2020/12/06 10:07:21;;;;;;;23.38;10.48;;;2.00;61.80;;;;;;4999671;28;20133;-87
2020/12/06 10:09:47;;;;;;;21.63;10.15;;;2.00;61.80;;;;;;4967094;28;20096;-86
2020/12/06 10:12:14;;;;;;;17.90;9.98;;;2.00;61.70;;;;;;4979784;28;20042;-92
2020/12/06 10:14:40;;;;;;;23.15;10.68;;;2.00;61.90;;;;;;4961706;28;20042;-84
2020/12/06 10:17:06;;;;;;;21.73;10.48;;;2.00;62.10;;;;;;4992895;28;20034;-83
2020/12/06 10:19:32;;;;;;;21.40;11.43;;;2.00;61.90;;;;;;4992742;28;20092;-84
2020/12/06 10:21:58;;;;;;;24.90;10.35;;;2.00;62.00;;;;;;4975450;28;20395;-85
2020/12/06 10:24:24;;;;;;;20.73;10.65;;;2.00;61.90;;;;;;4994452;28;20508;-87
2020/12/06 10:26:53;;;;;;;21.35;10.05;;;2.00;62.00;;;;;;4998981;28;20031;-87
2020/12/06 10:29:20;;;;;;;24.58;11.07;;;2.00;62.00;;;;;;4981784;28;20042;-87
2020/12/06 10:34:26;;;;;;;21.02;11.57;;;2.00;62.10;;;;;;5044282;23;20192;-89
2020/12/06 10:36:55;;;;;;;21.25;10.48;;;2.00;62.10;;;;;;4985496;28;20042;-86
2020/12/06 10:39:22;;;;;;;20.92;10.23;;;2.00;62.20;;;;;;4957192;28;20046;-85
2020/12/06 10:41:50;;;;;;;19.95;10.18;;;2.00;62.20;;;;;;4979411;28;20030;-90
2020/12/06 10:44:17;;;;;;;23.00;10.65;;;2.10;62.60;;;;;;4982955;28;20034;-87
2020/12/06 10:46:43;;;;;;;23.80;12.02;;;2.00;62.20;;;;;;4964223;28;20215;-87
2020/12/06 10:49:10;;;;;;;27.80;10.82;;;2.00;62.20;;;;;;4981676;28;20019;-84
2020/12/06 10:51:38;;;;;;;25.90;11.60;;;2.00;61.90;;;;;;4955662;28;20050;-79
2020/12/06 10:54:05;;;;;;;21.83;10.48;;;2.00;61.60;;;;;;4973225;28;20074;-79
2020/12/06 10:56:31;;;;;;;27.38;10.98;;;1.90;61.20;;;;;;4956060;28;20070;-82
2020/12/06 10:58:57;;;;;;;26.20;11.82;;;1.80;61.10;;;;;;4972662;28;20049;-79
2020/12/06 11:01:30;;;;;;;23.38;11.10;;;1.80;61.20;;;;;;4972842;28;20102;-82
2020/12/06 11:03:56;;;;;;;25.23;12.65;;;1.80;60.50;;;;;;4973015;28;20187;-84
2020/12/06 11:06:23;;;;;;;28.55;12.68;;;1.80;60.30;;;;;;4959205;28;20459;-84
2020/12/06 11:08:49;;;;;;;24.92;12.38;;;1.70;59.90;;;;;;4958355;28;20080;-83
2020/12/06 11:11:17;;;;;;;24.75;11.45;;;1.80;59.80;;;;;;4958808;28;20038;-83
2020/12/06 11:13:43;;;;;;;27.42;12.35;;;1.70;59.30;;;;;;4958603;28;20049;-84
2020/12/06 11:16:09;;;;;;;29.35;11.60;;;1.70;59.20;;;;;;4975759;28;20419;-84
2020/12/06 11:18:35;;;;;;;25.10;12.45;;;1.70;59.30;;;;;;4958830;28;20454;-83
2020/12/06 11:21:02;;;;;;;26.80;12.02;;;1.70;59.20;;;;;;4977333;28;20038;-84
2020/12/06 11:23:28;;;;;;;28.25;12.93;;;1.70;59.10;;;;;;4977855;28;20478;-82
2020/12/06 11:25:54;;;;;;;22.70;11.40;;;1.60;58.80;;;;;;4976989;28;20083;-85
2020/12/06 11:28:21;;;;;;;26.35;12.85;;;1.60;58.90;;;;;;4976470;28;20049;-84
2020/12/06 11:30:47;;;;;;;27.23;12.48;;;1.60;58.80;;;;;;4958812;28;20038;-83
2020/12/06 11:33:13;;;;;;;26.33;13.27;;;1.60;58.90;;;;;;4975986;28;20431;-84
2020/12/06 11:35:39;;;;;;;29.85;12.70;;;1.60;58.80;;;;;;4959109;28;20042;-83
2020/12/06 11:38:05;;;;;;;25.60;12.50;;;1.60;59.00;;;;;;4976572;28;20031;-84
2020/12/06 11:40:31;;;;;;;22.60;12.73;;;1.60;58.70;;;;;;4976295;28;20034;-84
2020/12/06 11:42:58;;;;;;;26.85;14.38;;;1.60;59.00;;;;;;4958506;28;20046;-84
2020/12/06 11:45:24;;;;;;;27.30;13.60;;;1.60;58.90;;;;;;4976458;28;20046;-84
2020/12/06 11:47:49;;;;;;;25.23;12.35;;;1.50;58.90;;;;;;4975809;28;20060;-84
2020/12/06 11:50:15;;;;;;;33.20;14.07;;;1.60;58.80;;;;;;4958074;28;20513;-85
2020/12/06 11:52:43;;;;;;;26.27;12.23;;;1.60;58.80;;;;;;4976435;28;20037;-84
2020/12/06 11:55:10;;;;;;;25.38;13.38;;;1.60;59.30;;;;;;4942884;28;20382;-83
2020/12/06 11:57:36;;;;;;;30.98;12.75;;;1.50;59.60;;;;;;4975952;28;20045;-84
2020/12/06 12:00:04;;;;;;;23.42;12.20;;;1.50;59.60;;;;;;4975391;28;20054;-84
2020/12/06 12:02:37;;;;;;;28.77;12.43;;;1.50;59.40;;;;;;4975783;28;20041;-84
2020/12/06 12:05:03;;;;;;;25.92;12.55;;;1.50;59.50;;;;;;4958391;28;20038;-82
2020/12/06 12:07:31;;;;;;;29.63;12.80;;;1.50;59.40;;;;;;4975788;28;20451;-82
2020/12/06 12:09:57;;;;;;;25.50;13.02;;;1.60;59.40;;;;;;4975807;28;20121;-82
2020/12/06 12:12:23;;;;;;;24.48;11.27;;;1.50;59.60;;;;;;4977118;28;20053;-82
2020/12/06 12:14:49;;;;;;;23.55;11.32;;;1.50;60.10;;;;;;4976954;28;20030;-83
2020/12/06 12:17:15;;;;;;;28.42;12.98;;;1.40;59.70;;;;;;4975257;28;20078;-83
2020/12/06 12:19:41;;;;;;;23.95;12.10;;;1.40;59.80;;;;;;4974555;28;20042;-85
2020/12/06 12:22:07;;;;;;;29.30;13.18;;;1.40;59.70;;;;;;4975197;28;20073;-84
2020/12/06 12:24:37;;;;;;;27.50;13.15;;;1.50;59.80;;;;;;4976187;28;20039;-83
2020/12/06 12:27:03;;;;;;;23.13;11.80;;;1.40;59.90;;;;;;4975522;28;20053;-83
2020/12/06 12:29:29;;;;;;;21.65;12.25;;;1.40;59.90;;;;;;4979688;28;20046;-82
2020/12/06 12:31:55;;;;;;;28.00;12.20;;;1.30;60.30;;;;;;4961644;28;20035;-82
2020/12/06 12:34:21;;;;;;;30.02;12.13;;;1.20;60.30;;;;;;4965423;28;20062;-82
2020/12/06 12:36:47;;;;;;;26.38;11.35;;;1.30;60.20;;;;;;4963034;28;20043;-83
2020/12/06 12:39:14;;;;;;;27.17;12.50;;;1.20;60.30;;;;;;4958209;28;20517;-83
2020/12/06 12:41:40;;;;;;;23.83;12.02;;;1.20;60.50;;;;;;4975047;28;20038;-82
2020/12/06 12:44:08;;;;;;;24.83;13.05;;;1.30;60.50;;;;;;4975400;28;20038;-83
2020/12/06 12:46:35;;;;;;;24.77;12.20;;;1.30;60.70;;;;;;4959047;28;20042;-81
2020/12/06 12:49:02;;;;;;;25.88;12.40;;;1.20;60.70;;;;;;4957390;28;20039;-83